Time;durP1;ratioP1;P1;durP2;ratioP2;P2;SDS_P1;SDS_P2;PMS_P1;PMS_P2;Temp;Humidity;BMP_temperature;BMP_pressure;BME280_temperature;BME280_humidity;BME280_pressure;Samples;Min_cycle;Max_cycle;Signal;HPM_P1;HPM_P2
2023/05/29 00:01:34;;;;;;;19.17;3.63;;;;;;;;;;5050652;28;20024;-69
2023/05/29 00:03:59;;;;;;;25.30;4.20;;;;;;;;;;5053017;28;20076;-70
2023/05/29 00:06:24;;;;;;;20.83;4.10;;;;;;;;;;5053040;28;20033;-69
2023/05/29 00:08:50;;;;;;;22.00;3.77;;;;;;;;;;5053128;28;20024;-70
2023/05/29 00:11:15;;;;;;;24.47;4.00;;;;;;;;;;5052498;28;20039;-69
2023/05/29 00:13:40;;;;;;;24.73;3.83;;;;;;;;;;5052324;28;20013;-70
2023/05/29 00:16:06;;;;;;;27.33;4.33;;;;;;;;;;5048131;28;20023;-70
2023/05/29 00:18:31;;;;;;;26.20;4.40;;;;;;;;;;5053528;28;20111;-70
2023/05/29 00:20:57;;;;;;;22.80;3.73;;;;;;;;;;5052623;28;20021;-70
2023/05/29 00:23:23;;;;;;;24.07;3.87;;;;;;;;;;5051572;28;20024;-69
2023/05/29 00:25:48;;;;;;;26.97;3.60;;;;;;;;;;5051691;28;20033;-69
2023/05/29 00:28:13;;;;;;;20.67;3.53;;;;;;;;;;5052434;28;20032;-69
2023/05/29 00:30:39;;;;;;;23.03;3.57;;;;;;;;;;5052005;28;20107;-69
2023/05/29 00:33:05;;;;;;;20.50;3.90;;;;;;;;;;5052183;28;20063;-70
2023/05/29 00:35:30;;;;;;;18.60;3.43;;;;;;;;;;5053144;28;20463;-69
2023/05/29 00:37:55;;;;;;;16.93;4.00;;;;;;;;;;5051533;28;20039;-69
2023/05/29 00:40:21;;;;;;;23.10;3.67;;;;;;;;;;5051858;28;20025;-69
2023/05/29 00:42:46;;;;;;;26.67;4.73;;;;;;;;;;5053838;28;20418;-69
2023/05/29 00:45:13;;;;;;;17.87;3.50;;;;;;;;;;5051596;28;20049;-68
2023/05/29 00:47:38;;;;;;;26.60;4.53;;;;;;;;;;5050905;28;20231;-69
2023/05/29 00:50:04;;;;;;;24.87;3.80;;;;;;;;;;5052334;28;20013;-69
2023/05/29 00:52:29;;;;;;;21.00;3.50;;;;;;;;;;5051881;28;20033;-70
2023/05/29 00:54:55;;;;;;;23.93;3.73;;;;;;;;;;5052097;28;20029;-70
2023/05/29 00:57:21;;;;;;;20.07;4.27;;;;;;;;;;5052140;28;20028;-69
2023/05/29 00:59:47;;;;;;;21.93;3.40;;;;;;;;;;5052146;28;20032;-69
2023/05/29 01:02:12;;;;;;;23.23;4.03;;;;;;;;;;5046416;28;20025;-70
2023/05/29 01:04:38;;;;;;;24.17;3.87;;;;;;;;;;5047349;28;20049;-69
2023/05/29 01:07:03;;;;;;;20.40;3.63;;;;;;;;;;5051751;28;20490;-69
2023/05/29 01:09:34;;;;;;;24.00;3.67;;;;;;;;;;5052867;28;20047;-69
2023/05/29 01:12:25;;;;;;;24.80;3.70;;;;;;;;;;5052063;28;20047;-69
2023/05/29 01:15:17;;;;;;;19.45;3.70;;;;;;;;;;5026833;28;20051;-69
2023/05/29 01:17:51;;;;;;;24.70;3.58;;;;;;;;;;5013896;28;20569;-69
2023/05/29 01:20:27;;;;;;;22.83;4.13;;;;;;;;;;5051883;28;20486;-68
2023/05/29 01:23:07;;;;;;;20.70;3.57;;;;;;;;;;5050894;28;20055;-69
2023/05/29 01:25:42;;;;;;;18.97;3.40;;;;;;;;;;5051468;28;20383;-69
2023/05/29 01:28:09;;;;;;;26.13;3.83;;;;;;;;;;5050649;28;20111;-69
2023/05/29 01:30:35;;;;;;;22.67;3.87;;;;;;;;;;5051951;28;20356;-69
2023/05/29 01:33:00;;;;;;;28.43;4.33;;;;;;;;;;5045915;28;20032;-70
2023/05/29 01:35:26;;;;;;;24.90;2.90;;;;;;;;;;5051938;28;20478;-70
2023/05/29 01:37:51;;;;;;;23.10;3.40;;;;;;;;;;5046900;28;20021;-69
2023/05/29 01:40:16;;;;;;;20.43;4.20;;;;;;;;;;5051472;28;20495;-68
2023/05/29 01:42:42;;;;;;;22.23;3.37;;;;;;;;;;5046860;28;20021;-70
2023/05/29 01:45:08;;;;;;;19.27;3.27;;;;;;;;;;5050901;28;20025;-69
2023/05/29 01:47:34;;;;;;;21.00;3.73;;;;;;;;;;5045454;28;20022;-69
2023/05/29 01:50:00;;;;;;;16.20;3.20;;;;;;;;;;5037981;28;20387;-69
2023/05/29 01:52:25;;;;;;;22.47;3.83;;;;;;;;;;5046871;28;20427;-69
2023/05/29 01:54:50;;;;;;;24.73;3.43;;;;;;;;;;5050853;28;20029;-69
2023/05/29 01:57:16;;;;;;;16.60;2.87;;;;;;;;;;5048590;28;20026;-70
2023/05/29 01:59:41;;;;;;;22.93;4.80;;;;;;;;;;5048709;28;20040;-70
2023/05/29 02:02:10;;;;;;;24.43;3.13;;;;;;;;;;5046931;28;20104;-69
2023/05/29 02:04:35;;;;;;;22.27;3.43;;;;;;;;;;5051752;28;20049;-70
2023/05/29 02:07:00;;;;;;;15.20;3.00;;;;;;;;;;5050626;28;20025;-69
2023/05/29 02:09:26;;;;;;;17.53;2.97;;;;;;;;;;5051454;28;20029;-70
2023/05/29 02:11:51;;;;;;;18.17;3.50;;;;;;;;;;5050964;28;20541;-70
2023/05/29 02:14:16;;;;;;;15.30;2.60;;;;;;;;;;5037178;28;20104;-70
2023/05/29 02:16:43;;;;;;;22.80;3.40;;;;;;;;;;5050761;28;20017;-70
2023/05/29 02:19:09;;;;;;;16.77;3.27;;;;;;;;;;5050219;28;20466;-69
2023/05/29 02:21:38;;;;;;;15.23;3.30;;;;;;;;;;5052190;28;20017;-69
2023/05/29 02:24:03;;;;;;;20.17;2.90;;;;;;;;;;5052295;28;20134;-70
2023/05/29 02:26:28;;;;;;;18.87;3.50;;;;;;;;;;5051161;28;20445;-70
2023/05/29 02:28:53;;;;;;;17.37;2.53;;;;;;;;;;5050877;28;20031;-69
2023/05/29 02:31:19;;;;;;;16.93;2.63;;;;;;;;;;5048812;28;20053;-69
2023/05/29 02:33:44;;;;;;;12.17;2.43;;;;;;;;;;5051892;28;20017;-70
2023/05/29 02:36:11;;;;;;;20.80;3.00;;;;;;;;;;5050350;28;20471;-69
2023/05/29 02:38:36;;;;;;;18.20;3.17;;;;;;;;;;5050729;28;20021;-70
2023/05/29 02:41:02;;;;;;;19.70;2.83;;;;;;;;;;5051363;28;20108;-69
2023/05/29 02:43:27;;;;;;;16.87;2.53;;;;;;;;;;5046184;28;20022;-70
2023/05/29 02:45:52;;;;;;;19.03;2.73;;;;;;;;;;5051136;28;20549;-70
2023/05/29 02:48:18;;;;;;;17.70;2.77;;;;;;;;;;5048017;28;20399;-69
2023/05/29 02:50:43;;;;;;;19.43;2.93;;;;;;;;;;5050765;28;20060;-69
2023/05/29 02:53:08;;;;;;;13.50;2.70;;;;;;;;;;5050977;28;20017;-70
2023/05/29 02:55:35;;;;;;;18.53;3.90;;;;;;;;;;5051496;28;20025;-70
2023/05/29 02:58:01;;;;;;;20.63;2.80;;;;;;;;;;5051298;28;20013;-70
2023/05/29 03:00:28;;;;;;;18.50;2.70;;;;;;;;;;5049115;28;20112;-70
2023/05/29 03:02:53;;;;;;;17.83;2.57;;;;;;;;;;5052943;28;20013;-69
2023/05/29 03:05:19;;;;;;;19.47;2.87;;;;;;;;;;5053178;28;20371;-70
2023/05/29 03:07:44;;;;;;;20.40;2.97;;;;;;;;;;5053877;28;20036;-69
2023/05/29 03:10:09;;;;;;;21.97;2.80;;;;;;;;;;5036950;28;20541;-70
2023/05/29 03:12:35;;;;;;;23.07;3.50;;;;;;;;;;5053894;28;20033;-69
2023/05/29 03:15:00;;;;;;;19.33;2.73;;;;;;;;;;5055306;28;20104;-69
2023/05/29 03:17:25;;;;;;;19.50;2.93;;;;;;;;;;5054528;28;20541;-70
2023/05/29 03:19:51;;;;;;;12.33;2.77;;;;;;;;;;5048248;28;20063;-69
2023/05/29 03:22:16;;;;;;;14.13;2.63;;;;;;;;;;5052327;28;20032;-70
2023/05/29 03:24:41;;;;;;;15.90;2.47;;;;;;;;;;5052645;28;20033;-70
2023/05/29 03:27:07;;;;;;;21.83;4.17;;;;;;;;;;5050814;28;20105;-70
2023/05/29 03:29:32;;;;;;;19.27;3.07;;;;;;;;;;5046475;28;20390;-69
2023/05/29 03:31:57;;;;;;;22.10;2.80;;;;;;;;;;5053052;28;20027;-70
2023/05/29 03:34:23;;;;;;;19.17;2.50;;;;;;;;;;5053968;28;20392;-69
2023/05/29 03:36:48;;;;;;;18.17;2.90;;;;;;;;;;5054373;28;20021;-70
2023/05/29 03:39:13;;;;;;;17.40;2.83;;;;;;;;;;5051361;28;20471;-69
2023/05/29 03:41:39;;;;;;;22.17;3.43;;;;;;;;;;5054532;28;20561;-70
2023/05/29 03:44:04;;;;;;;23.30;3.00;;;;;;;;;;5053133;28;20032;-69
2023/05/29 03:46:29;;;;;;;16.73;2.57;;;;;;;;;;5050463;28;20033;-69
2023/05/29 03:48:55;;;;;;;23.33;3.33;;;;;;;;;;5051912;28;20094;-69
2023/05/29 03:51:20;;;;;;;19.10;3.27;;;;;;;;;;5053492;28;20497;-70
2023/05/29 03:53:45;;;;;;;16.70;2.20;;;;;;;;;;5052936;28;20036;-69
2023/05/29 03:56:11;;;;;;;24.90;2.60;;;;;;;;;;5053249;28;20478;-69
2023/05/29 03:58:36;;;;;;;17.33;2.50;;;;;;;;;;5052902;28;20028;-70
2023/05/29 04:01:01;;;;;;;15.60;2.37;;;;;;;;;;5058289;28;20052;-69
2023/05/29 04:03:28;;;;;;;17.80;2.57;;;;;;;;;;5057006;28;20535;-68
2023/05/29 04:05:55;;;;;;;20.43;2.83;;;;;;;;;;5053291;28;20112;-70
2023/05/29 04:08:20;;;;;;;15.67;2.47;;;;;;;;;;5053074;28;20028;-69
2023/05/29 04:10:46;;;;;;;18.47;2.93;;;;;;;;;;5053387;28;20043;-70
2023/05/29 04:13:11;;;;;;;10.83;2.20;;;;;;;;;;5053411;28;20033;-69
2023/05/29 04:15:37;;;;;;;16.67;2.60;;;;;;;;;;5052118;28;20064;-69
2023/05/29 04:18:03;;;;;;;21.90;3.00;;;;;;;;;;5053307;28;20024;-69
2023/05/29 04:20:28;;;;;;;16.87;3.13;;;;;;;;;;5038160;28;20410;-69
2023/05/29 04:22:53;;;;;;;15.47;2.63;;;;;;;;;;5052590;28;20371;-69
2023/05/29 04:25:19;;;;;;;13.30;2.57;;;;;;;;;;5053532;28;20024;-70
2023/05/29 04:27:50;;;;;;;18.73;2.37;;;;;;;;;;5048156;28;20024;-69
2023/05/29 04:30:16;;;;;;;22.65;3.38;;;;;;;;;;5052639;28;20109;-69
2023/05/29 04:32:41;;;;;;;16.80;2.70;;;;;;;;;;5039766;28;20112;-70
2023/05/29 04:35:07;;;;;;;16.17;2.60;;;;;;;;;;5053528;28;20017;-70
2023/05/29 04:37:37;;;;;;;17.07;2.33;;;;;;;;;;5052065;28;20020;-70
2023/05/29 04:40:08;;;;;;;15.10;2.40;;;;;;;;;;5051162;28;20025;-69
2023/05/29 04:42:33;;;;;;;12.98;2.00;;;;;;;;;;5052845;28;20542;-69
2023/05/29 04:44:58;;;;;;;15.07;2.83;;;;;;;;;;5042103;28;20108;-69
2023/05/29 04:47:24;;;;;;;20.93;3.10;;;;;;;;;;5051938;28;20036;-69
2023/05/29 04:49:50;;;;;;;16.27;2.37;;;;;;;;;;5047775;28;20356;-69
2023/05/29 04:52:18;;;;;;;18.73;2.43;;;;;;;;;;5052342;28;20021;-69
2023/05/29 04:54:43;;;;;;;14.50;2.50;;;;;;;;;;5045033;28;20549;-69
2023/05/29 04:57:09;;;;;;;18.53;2.50;;;;;;;;;;5049203;28;20025;-69
2023/05/29 04:59:34;;;;;;;13.83;2.50;;;;;;;;;;5049582;28;20021;-70
2023/05/29 05:02:00;;;;;;;19.10;2.90;;;;;;;;;;5052030;28;20017;-69
2023/05/29 05:04:25;;;;;;;13.63;2.73;;;;;;;;;;5051231;28;20051;-68
2023/05/29 05:06:51;;;;;;;15.57;2.60;;;;;;;;;;5052349;28;20131;-68
2023/05/29 05:09:17;;;;;;;17.50;2.60;;;;;;;;;;5049188;28;20029;-68
2023/05/29 05:11:42;;;;;;;15.00;2.70;;;;;;;;;;5051762;28;20017;-68
2023/05/29 05:14:08;;;;;;;20.67;2.73;;;;;;;;;;5051890;28;20096;-67
2023/05/29 05:16:33;;;;;;;16.30;2.43;;;;;;;;;;5052089;28;20027;-68
2023/05/29 05:18:58;;;;;;;15.95;2.33;;;;;;;;;;5051936;28;20051;-67
2023/05/29 05:21:24;;;;;;;16.42;2.42;;;;;;;;;;5050967;28;20035;-67
2023/05/29 05:23:49;;;;;;;13.75;1.92;;;;;;;;;;5051231;28;20518;-68
2023/05/29 05:26:14;;;;;;;12.02;2.13;;;;;;;;;;5034807;28;20033;-68
2023/05/29 05:28:40;;;;;;;14.25;2.33;;;;;;;;;;5048052;28;20028;-68
2023/05/29 05:31:06;;;;;;;15.38;2.40;;;;;;;;;;5044662;28;20029;-68
2023/05/29 05:33:31;;;;;;;18.17;2.80;;;;;;;;;;5052821;28;20047;-68
2023/05/29 05:35:56;;;;;;;16.92;2.58;;;;;;;;;;5051503;28;20021;-67
2023/05/29 05:38:21;;;;;;;10.98;2.05;;;;;;;;;;5051137;28;20023;-68
2023/05/29 05:40:47;;;;;;;14.07;2.67;;;;;;;;;;5052777;28;20062;-67
2023/05/29 05:43:12;;;;;;;14.98;2.88;;;;;;;;;;5048820;28;20052;-67
2023/05/29 05:45:41;;;;;;;12.77;2.15;;;;;;;;;;5048983;28;20021;-67
2023/05/29 05:48:07;;;;;;;13.32;2.65;;;;;;;;;;5051186;28;20044;-67
2023/05/29 05:50:32;;;;;;;13.35;2.30;;;;;;;;;;5050295;28;20025;-68
2023/05/29 05:52:57;;;;;;;14.88;3.22;;;;;;;;;;5051600;28;20475;-67
2023/05/29 05:55:23;;;;;;;13.07;2.47;;;;;;;;;;5040837;28;20018;-68
2023/05/29 05:57:48;;;;;;;13.73;3.15;;;;;;;;;;5043067;28;20032;-67
2023/05/29 06:00:14;;;;;;;19.83;2.60;;;;;;;;;;5043241;28;20507;-68
2023/05/29 06:02:44;;;;;;;21.90;2.85;;;;;;;;;;5047291;28;20074;-68
2023/05/29 06:05:09;;;;;;;12.77;2.60;;;;;;;;;;5046812;28;20399;-67
2023/05/29 06:07:35;;;;;;;13.68;2.60;;;;;;;;;;5049476;28;20013;-68
2023/05/29 06:10:00;;;;;;;16.30;2.65;;;;;;;;;;5043292;28;20026;-68
2023/05/29 06:12:26;;;;;;;15.07;2.97;;;;;;;;;;5048677;28;20029;-67
2023/05/29 06:14:51;;;;;;;13.27;2.17;;;;;;;;;;5058772;28;20020;-68
2023/05/29 06:17:16;;;;;;;18.48;2.72;;;;;;;;;;5051585;28;20052;-67
2023/05/29 06:19:41;;;;;;;18.38;2.95;;;;;;;;;;5049087;28;20032;-68
2023/05/29 06:22:07;;;;;;;12.15;2.50;;;;;;;;;;5051087;28;22084;-67
2023/05/29 06:24:32;;;;;;;14.93;2.50;;;;;;;;;;5051144;28;20027;-67
2023/05/29 06:26:57;;;;;;;18.33;3.00;;;;;;;;;;5051576;28;20029;-68
2023/05/29 06:29:23;;;;;;;12.02;2.47;;;;;;;;;;5050786;28;20025;-66
2023/05/29 06:31:48;;;;;;;12.25;2.58;;;;;;;;;;5050033;28;20036;-67
2023/05/29 06:34:13;;;;;;;11.90;2.05;;;;;;;;;;5053462;28;20104;-68
2023/05/29 06:36:40;;;;;;;12.45;2.50;;;;;;;;;;5050854;28;20021;-67
2023/05/29 06:39:05;;;;;;;13.70;2.58;;;;;;;;;;5052907;28;20479;-68
2023/05/29 06:41:30;;;;;;;13.98;2.45;;;;;;;;;;5055474;28;20024;-68
2023/05/29 06:43:55;;;;;;;15.13;2.50;;;;;;;;;;5053940;28;20356;-68
2023/05/29 06:46:21;;;;;;;16.38;3.00;;;;;;;;;;5053499;28;20029;-68
2023/05/29 06:48:46;;;;;;;12.68;2.35;;;;;;;;;;5053756;28;20128;-68
2023/05/29 06:51:12;;;;;;;14.77;2.33;;;;;;;;;;5055729;28;20024;-68
2023/05/29 06:53:40;;;;;;;12.00;2.22;;;;;;;;;;5053823;28;20036;-67
2023/05/29 06:56:06;;;;;;;8.65;2.08;;;;;;;;;;5054595;28;20505;-68
2023/05/29 06:58:31;;;;;;;14.27;2.58;;;;;;;;;;5055689;28;20096;-68
2023/05/29 07:00:57;;;;;;;10.48;2.35;;;;;;;;;;5054787;28;20033;-68
2023/05/29 07:03:23;;;;;;;12.60;2.50;;;;;;;;;;5055044;28;20386;-68
2023/05/29 07:05:49;;;;;;;13.40;2.40;;;;;;;;;;5053189;28;20025;-67
2023/05/29 07:08:14;;;;;;;10.45;2.40;;;;;;;;;;5052886;28;20056;-68
2023/05/29 07:10:40;;;;;;;12.93;2.35;;;;;;;;;;5050584;28;20064;-68
2023/05/29 07:13:06;;;;;;;11.75;2.30;;;;;;;;;;5058484;28;20053;-67
2023/05/29 07:15:31;;;;;;;12.60;2.38;;;;;;;;;;5053862;28;20025;-67
2023/05/29 07:17:56;;;;;;;10.48;2.35;;;;;;;;;;5056385;28;20021;-68
2023/05/29 07:20:22;;;;;;;9.55;2.47;;;;;;;;;;5062295;28;20367;-67
2023/05/29 07:22:47;;;;;;;12.65;2.40;;;;;;;;;;5058348;28;20060;-68
2023/05/29 07:25:12;;;;;;;10.75;2.15;;;;;;;;;;5060809;28;20021;-67
2023/05/29 07:27:38;;;;;;;10.48;2.25;;;;;;;;;;5052786;28;20021;-68
2023/05/29 07:30:05;;;;;;;12.23;2.65;;;;;;;;;;5053987;28;20021;-66
2023/05/29 07:32:31;;;;;;;12.15;2.50;;;;;;;;;;5050622;28;20025;-67
2023/05/29 07:34:56;;;;;;;13.18;2.45;;;;;;;;;;5053611;28;20055;-69
2023/05/29 07:37:21;;;;;;;11.05;2.20;;;;;;;;;;5053076;28;20376;-68
2023/05/29 07:39:46;;;;;;;9.93;2.45;;;;;;;;;;5051719;28;20026;-68
2023/05/29 07:42:12;;;;;;;12.85;2.40;;;;;;;;;;5048627;28;20036;-66
2023/05/29 07:44:37;;;;;;;14.20;2.42;;;;;;;;;;5046523;28;20584;-68
2023/05/29 07:47:02;;;;;;;11.57;2.40;;;;;;;;;;5054003;28;20070;-68
2023/05/29 07:49:28;;;;;;;15.93;2.90;;;;;;;;;;5048633;28;20021;-67
2023/05/29 07:51:53;;;;;;;12.45;2.65;;;;;;;;;;5052858;28;20017;-68
2023/05/29 07:54:20;;;;;;;11.93;2.40;;;;;;;;;;5046342;28;20087;-67
2023/05/29 07:56:45;;;;;;;12.27;2.80;;;;;;;;;;5034377;28;20476;-67
2023/05/29 07:59:11;;;;;;;7.78;2.25;;;;;;;;;;5040295;28;20055;-67
2023/05/29 08:01:37;;;;;;;8.90;2.30;;;;;;;;;;5050628;28;20414;-67
2023/05/29 08:04:02;;;;;;;12.20;2.75;;;;;;;;;;5052023;28;20041;-67
2023/05/29 08:06:27;;;;;;;13.63;2.72;;;;;;;;;;5052714;28;20044;-68
2023/05/29 08:08:53;;;;;;;11.68;2.45;;;;;;;;;;5052855;28;20067;-68
2023/05/29 08:11:19;;;;;;;11.30;2.30;;;;;;;;;;5054955;28;20095;-68
2023/05/29 08:13:44;;;;;;;8.15;2.20;;;;;;;;;;5054413;28;20017;-68
2023/05/29 08:16:10;;;;;;;11.57;2.30;;;;;;;;;;5054522;28;20112;-67
2023/05/29 08:18:36;;;;;;;11.27;2.42;;;;;;;;;;5055065;28;20012;-68
2023/05/29 08:21:01;;;;;;;11.80;2.70;;;;;;;;;;5054740;28;20017;-68
2023/05/29 08:23:27;;;;;;;11.45;2.30;;;;;;;;;;5054870;28;20525;-68
2023/05/29 08:25:52;;;;;;;11.80;2.80;;;;;;;;;;5053881;28;20025;-67
2023/05/29 08:28:17;;;;;;;10.85;2.55;;;;;;;;;;5053774;28;20433;-68
2023/05/29 08:30:42;;;;;;;11.80;2.10;;;;;;;;;;5053721;28;20025;-68
2023/05/29 08:33:08;;;;;;;9.50;2.55;;;;;;;;;;5052277;28;20021;-67
2023/05/29 08:35:33;;;;;;;12.20;2.28;;;;;;;;;;5052231;28;20013;-68
2023/05/29 08:37:59;;;;;;;11.63;2.40;;;;;;;;;;5054640;28;20017;-68
2023/05/29 08:40:24;;;;;;;10.90;2.65;;;;;;;;;;5053140;28;20430;-68
2023/05/29 08:43:15;;;;;;;14.80;2.75;;;;;;;;;;5053954;28;20032;-68
2023/05/29 08:45:40;;;;;;;;;;;;;;;;;;5050950;28;20041;-67
2023/05/29 08:48:07;;;;;;;11.27;2.70;;;;;;;;;;5086400;28;19909;-68
2023/05/29 08:50:33;;;;;;;12.02;2.67;;;;;;;;;;5053381;28;20275;-67
2023/05/29 08:52:58;;;;;;;12.20;2.50;;;;;;;;;;5053451;28;20028;-68
2023/05/29 08:55:24;;;;;;;13.82;2.60;;;;;;;;;;5053145;28;20020;-67
2023/05/29 08:57:50;;;;;;;13.27;2.60;;;;;;;;;;5053952;28;20475;-68
2023/05/29 09:00:18;;;;;;;10.13;2.40;;;;;;;;;;5051722;28;20024;-68
2023/05/29 09:02:43;;;;;;;9.82;2.30;;;;;;;;;;5049288;28;20022;-67
2023/05/29 09:05:09;;;;;;;10.40;2.63;;;;;;;;;;5049627;28;20059;-67
2023/05/29 09:07:38;;;;;;;14.85;2.88;;;;;;;;;;5052855;28;20127;-68
2023/05/29 09:10:03;;;;;;;9.10;2.38;;;;;;;;;;5053431;28;20459;-68
2023/05/29 09:12:29;;;;;;;10.80;2.70;;;;;;;;;;5052178;28;20029;-68
2023/05/29 09:14:55;;;;;;;11.77;2.50;;;;;;;;;;5052877;28;20413;-68
2023/05/29 09:17:20;;;;;;;12.70;2.58;;;;;;;;;;5053699;28;20127;-68
2023/05/29 09:19:47;;;;;;;11.57;2.40;;;;;;;;;;5053008;28;20386;-67
2023/05/29 09:22:14;;;;;;;13.52;2.35;;;;;;;;;;5033827;28;20020;-68
2023/05/29 09:24:40;;;;;;;7.57;2.40;;;;;;;;;;5033864;28;20025;-68
2023/05/29 09:27:07;;;;;;;11.23;2.30;;;;;;;;;;5034489;28;20040;-67
2023/05/29 09:29:40;;;;;;;13.32;2.75;;;;;;;;;;5040127;28;20021;-67
2023/05/29 09:32:10;;;;;;;15.70;2.53;;;;;;;;;;5043825;28;20028;-66
2023/05/29 09:34:35;;;;;;;13.80;2.63;;;;;;;;;;5051948;28;20109;-68
2023/05/29 09:37:10;;;;;;;12.27;2.78;;;;;;;;;;5052406;28;20063;-68
2023/05/29 09:39:46;;;;;;;13.00;2.92;;;;;;;;;;5052530;28;20025;-67
2023/05/29 09:42:11;;;;;;;9.65;2.22;;;;;;;;;;5053141;28;20059;-67
2023/05/29 09:44:37;;;;;;;11.32;2.30;;;;;;;;;;5051874;28;20021;-67
2023/05/29 09:47:02;;;;;;;12.77;2.80;;;;;;;;;;5050529;28;20024;-67
2023/05/29 09:49:28;;;;;;;10.70;2.40;;;;;;;;;;5053092;28;20024;-68
2023/05/29 09:51:54;;;;;;;9.77;2.25;;;;;;;;;;5053155;28;20471;-68
2023/05/29 09:54:19;;;;;;;9.85;2.40;;;;;;;;;;5048435;28;20064;-68
2023/05/29 09:56:45;;;;;;;15.10;2.50;;;;;;;;;;5047485;28;20471;-67
2023/05/29 09:59:11;;;;;;;11.80;3.05;;;;;;;;;;5049324;28;20538;-68
2023/05/29 10:01:39;;;;;;;14.20;2.58;;;;;;;;;;5052366;28;20029;-68
2023/05/29 10:04:04;;;;;;;10.55;2.53;;;;;;;;;;5050346;28;20037;-68
2023/05/29 10:06:29;;;;;;;11.07;2.63;;;;;;;;;;5047899;28;20040;-69
2023/05/29 10:08:55;;;;;;;13.20;2.67;;;;;;;;;;5046276;28;20025;-68
2023/05/29 10:11:24;;;;;;;12.95;2.75;;;;;;;;;;5049896;28;20387;-67
2023/05/29 10:13:51;;;;;;;12.18;2.72;;;;;;;;;;5051836;28;20021;-68
2023/05/29 10:16:18;;;;;;;9.82;2.83;;;;;;;;;;5049714;28;20024;-68
2023/05/29 10:18:49;;;;;;;14.95;2.78;;;;;;;;;;5051093;28;20379;-68
2023/05/29 10:21:15;;;;;;;16.77;3.17;;;;;;;;;;5053984;28;20502;-67
2023/05/29 10:23:41;;;;;;;11.40;2.53;;;;;;;;;;5053082;28;20408;-68
2023/05/29 10:26:28;;;;;;;10.35;2.70;;;;;;;;;;5048296;28;20075;-67
2023/05/29 10:29:00;;;;;;;9.27;2.60;;;;;;;;;;5048199;28;20475;-69
2023/05/29 10:31:42;;;;;;;13.95;2.97;;;;;;;;;;5051441;28;20108;-68
2023/05/29 10:34:18;;;;;;;12.80;2.97;;;;;;;;;;5049146;28;20025;-68
2023/05/29 10:36:47;;;;;;;10.38;2.40;;;;;;;;;;5055294;28;20373;-67
2023/05/29 10:39:12;;;;;;;11.30;2.35;;;;;;;;;;5049139;28;20017;-68
2023/05/29 10:41:40;;;;;;;11.18;2.75;;;;;;;;;;5052007;28;20028;-68
2023/05/29 10:44:25;;;;;;;10.75;2.40;;;;;;;;;;5050867;28;20031;-68
2023/05/29 10:47:12;;;;;;;12.77;2.92;;;;;;;;;;5068100;28;20028;-68
2023/05/29 10:49:37;;;;;;;9.35;2.42;;;;;;;;;;5052291;28;20124;-68
2023/05/29 10:52:04;;;;;;;15.63;2.53;;;;;;;;;;5054278;28;20452;-68
2023/05/29 10:54:39;;;;;;;11.90;2.50;;;;;;;;;;5048064;28;20125;-66
2023/05/29 10:57:08;;;;;;;13.77;2.42;;;;;;;;;;5043135;28;20086;-67
2023/05/29 10:59:36;;;;;;;11.35;2.60;;;;;;;;;;5054169;28;20051;-65
2023/05/29 11:02:03;;;;;;;9.88;2.50;;;;;;;;;;5054376;28;20028;-68
2023/05/29 11:04:31;;;;;;;8.55;1.98;;;;;;;;;;5054779;28;20044;-68
2023/05/29 11:06:57;;;;;;;10.25;2.70;;;;;;;;;;5052451;28;20028;-68
2023/05/29 11:09:26;;;;;;;12.57;2.50;;;;;;;;;;5050467;28;20028;-68
2023/05/29 11:12:10;;;;;;;8.70;2.50;;;;;;;;;;5053303;28;20031;-68
2023/05/29 11:14:49;;;;;;;14.95;2.60;;;;;;;;;;5050795;28;20023;-68
2023/05/29 11:17:42;;;;;;;10.82;2.80;;;;;;;;;;5045145;28;20063;-66
2023/05/29 11:20:09;;;;;;;12.13;2.70;;;;;;;;;;5063211;28;20021;-68
2023/05/29 11:22:53;;;;;;;12.10;2.65;;;;;;;;;;5055828;28;20032;-68
2023/05/29 11:25:20;;;;;;;13.45;2.65;;;;;;;;;;5054867;28;20028;-68
2023/05/29 11:27:45;;;;;;;9.85;2.53;;;;;;;;;;5049226;28;20032;-68
2023/05/29 11:30:11;;;;;;;10.52;2.13;;;;;;;;;;5054633;28;20025;-68
2023/05/29 11:32:37;;;;;;;9.35;2.22;;;;;;;;;;5055324;28;20104;-68
2023/05/29 11:35:07;;;;;;;12.85;2.35;;;;;;;;;;5053577;28;20066;-69
2023/05/29 11:37:33;;;;;;;10.63;2.70;;;;;;;;;;5054245;28;20032;-69
2023/05/29 11:39:58;;;;;;;10.60;2.25;;;;;;;;;;5054417;28;20021;-69
2023/05/29 11:42:23;;;;;;;10.48;2.50;;;;;;;;;;5050170;28;20032;-68
2023/05/29 11:44:49;;;;;;;10.57;2.60;;;;;;;;;;5053029;28;20025;-69
2023/05/29 11:47:15;;;;;;;9.40;2.28;;;;;;;;;;5055199;28;20467;-69
2023/05/29 11:49:40;;;;;;;13.98;2.47;;;;;;;;;;5050122;28;20075;-69
2023/05/29 11:52:09;;;;;;;8.00;2.20;;;;;;;;;;5050935;28;20020;-68
2023/05/29 11:54:34;;;;;;;13.00;2.70;;;;;;;;;;5049653;28;20014;-69
2023/05/29 11:57:00;;;;;;;10.02;2.42;;;;;;;;;;5053832;28;20056;-70
2023/05/29 11:59:28;;;;;;;9.82;2.35;;;;;;;;;;5051693;28;20476;-70
2023/05/29 12:01:53;;;;;;;11.30;2.30;;;;;;;;;;5048913;28;20506;-69
2023/05/29 12:04:18;;;;;;;8.80;2.50;;;;;;;;;;5058182;28;20045;-69
2023/05/29 12:06:44;;;;;;;9.82;2.30;;;;;;;;;;5057093;28;20025;-69
2023/05/29 12:09:10;;;;;;;8.88;2.53;;;;;;;;;;5057466;28;20075;-69
2023/05/29 12:11:35;;;;;;;10.68;2.15;;;;;;;;;;5054152;28;20493;-70
2023/05/29 12:14:00;;;;;;;13.45;2.42;;;;;;;;;;5054011;28;20025;-70
2023/05/29 12:16:27;;;;;;;12.90;2.40;;;;;;;;;;5052500;28;20023;-72
2023/05/29 12:18:53;;;;;;;12.90;2.47;;;;;;;;;;5053611;28;20537;-71
2023/05/29 12:21:19;;;;;;;8.75;2.40;;;;;;;;;;5050349;28;20028;-70
2023/05/29 12:23:45;;;;;;;10.70;2.22;;;;;;;;;;5052507;28;20037;-72
2023/05/29 12:26:10;;;;;;;8.65;2.60;;;;;;;;;;5053106;28;20115;-71
2023/05/29 12:28:41;;;;;;;11.60;2.80;;;;;;;;;;5053636;28;20029;-70
2023/05/29 12:31:07;;;;;;;10.35;2.45;;;;;;;;;;5052351;28;20063;-70
2023/05/29 12:33:33;;;;;;;10.70;2.60;;;;;;;;;;5053546;28;20466;-70
2023/05/29 12:36:09;;;;;;;11.38;2.38;;;;;;;;;;5048469;28;20017;-70
2023/05/29 12:38:47;;;;;;;11.13;2.60;;;;;;;;;;5050970;28;20478;-64
2023/05/29 12:41:23;;;;;;;9.63;2.42;;;;;;;;;;5049918;28;20092;-63
2023/05/29 12:43:48;;;;;;;9.10;2.40;;;;;;;;;;5048431;28;20055;-64
2023/05/29 12:46:13;;;;;;;12.65;2.55;;;;;;;;;;5056632;28;20021;-65
2023/05/29 12:48:39;;;;;;;11.85;2.60;;;;;;;;;;5050205;28;20474;-64
2023/05/29 12:51:04;;;;;;;7.90;2.10;;;;;;;;;;5048436;28;20028;-63
2023/05/29 12:53:30;;;;;;;10.52;2.38;;;;;;;;;;5050820;28;20021;-63
2023/05/29 12:55:56;;;;;;;9.68;2.22;;;;;;;;;;5051452;28;20021;-64
2023/05/29 12:58:23;;;;;;;8.68;1.95;;;;;;;;;;5050296;28;20059;-65
2023/05/29 13:00:55;;;;;;;12.40;2.33;;;;;;;;;;5051011;28;20466;-63
2023/05/29 13:03:22;;;;;;;10.40;2.50;;;;;;;;;;5048491;28;20032;-65
2023/05/29 13:05:47;;;;;;;9.68;2.10;;;;;;;;;;5052687;28;20041;-65
2023/05/29 13:08:13;;;;;;;13.20;2.60;;;;;;;;;;5051590;28;20491;-65
2023/05/29 13:10:38;;;;;;;11.35;2.53;;;;;;;;;;5048569;28;20025;-65
2023/05/29 13:13:03;;;;;;;9.73;2.03;;;;;;;;;;5052063;28;20529;-65
2023/05/29 13:15:29;;;;;;;12.15;2.60;;;;;;;;;;5050260;28;20027;-64
2023/05/29 13:17:54;;;;;;;8.02;1.98;;;;;;;;;;5045064;28;20017;-65
2023/05/29 13:20:19;;;;;;;9.32;2.10;;;;;;;;;;5052919;28;20108;-64
2023/05/29 13:22:45;;;;;;;9.60;2.40;;;;;;;;;;5053040;28;20033;-66
2023/05/29 13:25:12;;;;;;;8.52;2.30;;;;;;;;;;5051487;28;20039;-66
2023/05/29 13:27:38;;;;;;;8.15;2.30;;;;;;;;;;5052892;28;20441;-65
2023/05/29 13:30:04;;;;;;;8.80;1.98;;;;;;;;;;5050661;28;20021;-67
2023/05/29 13:32:30;;;;;;;10.95;2.28;;;;;;;;;;5046981;28;20063;-66
2023/05/29 13:34:56;;;;;;;8.38;2.00;;;;;;;;;;5048410;28;20021;-65
2023/05/29 13:37:21;;;;;;;10.07;2.35;;;;;;;;;;5046630;28;20036;-65
2023/05/29 13:39:46;;;;;;;9.60;2.25;;;;;;;;;;5049684;28;20025;-66
2023/05/29 13:42:12;;;;;;;11.23;2.45;;;;;;;;;;5052934;28;20096;-66
2023/05/29 13:44:38;;;;;;;12.18;2.22;;;;;;;;;;5050866;28;20037;-65
2023/05/29 13:47:03;;;;;;;8.77;2.33;;;;;;;;;;5050801;28;20028;-66
2023/05/29 13:49:28;;;;;;;8.38;2.10;;;;;;;;;;5041523;28;20060;-66
2023/05/29 13:51:54;;;;;;;11.13;2.30;;;;;;;;;;5048770;28;20032;-67
2023/05/29 13:54:19;;;;;;;8.55;2.30;;;;;;;;;;5049614;28;20021;-68
2023/05/29 13:56:44;;;;;;;8.95;1.90;;;;;;;;;;5052000;28;20017;-69
2023/05/29 13:59:10;;;;;;;9.95;2.83;;;;;;;;;;5051150;28;20023;-68
2023/05/29 14:01:35;;;;;;;9.05;1.95;;;;;;;;;;5050753;28;20025;-67
2023/05/29 14:04:00;;;;;;;7.97;2.00;;;;;;;;;;5050086;28;20049;-68
2023/05/29 14:06:26;;;;;;;8.82;2.20;;;;;;;;;;5052229;28;20025;-68
2023/05/29 14:08:51;;;;;;;9.52;2.22;;;;;;;;;;5052385;28;20032;-68
2023/05/29 14:11:17;;;;;;;12.00;2.30;;;;;;;;;;5048988;28;20392;-69
2023/05/29 14:13:42;;;;;;;9.88;2.45;;;;;;;;;;5050889;28;20029;-69
2023/05/29 14:16:07;;;;;;;8.45;2.05;;;;;;;;;;5053996;28;20017;-68
2023/05/29 14:18:32;;;;;;;9.38;2.20;;;;;;;;;;5052191;28;20124;-67
2023/05/29 14:20:58;;;;;;;12.05;2.10;;;;;;;;;;5051091;28;20093;-69
2023/05/29 14:23:23;;;;;;;10.15;2.17;;;;;;;;;;5047548;28;20514;-69
2023/05/29 14:25:48;;;;;;;7.65;1.77;;;;;;;;;;5050404;28;20020;-69
2023/05/29 14:28:14;;;;;;;9.45;2.28;;;;;;;;;;5048491;28;20036;-67
2023/05/29 14:30:39;;;;;;;8.25;1.90;;;;;;;;;;5047969;28;20741;-67